Inicio METAR Ruta Wind Satelite

Informe Meteorológico

Fecha: 2024/06/18 20:29:21 Local
2024.06.19 01:29 UTC


Operación:VFR
SKSP 190100Z 10005KT 060V140 9999 FEW016 29/26 Q1009 =

SKSP 190000Z 09007KT 050V120 9999 FEW016 29/25 Q1008
SKSP 182300Z 09010KT 060V140 9999 VCSH FEW016 30/25 Q1007 RMK VCSH/SW
SKSP 182200Z 08010KT 060V120 9999 VCSH FEW016 30/25 Q1007 RMK VCSH/SW/W
SKSP 182100Z 09009KT 070V180 9999 SCT016 30/25 Q1008
SKSP 182000Z 09008KT 070V130 9999 SCT016 30/26 Q1008

2024/06/18 18:42
TAF SKSP 181630Z 1818/1918 07010KT 9999 SCT018
TEMPO 1818/1821 TSRA SCT016CB TX30/1819Z TN26/1910Z